sensor_id;sensor_type;location;lat;lon;timestamp;pressure;altitude;pressure_sealevel;temperature;humidity
49657;BME280;52851;38.810;-78.768;2022-07-12T00:01:26;95630.96;;;27.52;34.31
49657;BME280;52851;38.810;-78.768;2022-07-12T00:03:54;95631.83;;;27.49;34.31
49657;BME280;52851;38.810;-78.768;2022-07-12T00:06:22;95630.04;;;27.41;34.41
49657;BME280;52851;38.810;-78.768;2022-07-12T00:08:50;95624.51;;;27.66;34.41
49657;BME280;52851;38.810;-78.768;2022-07-12T00:11:18;95624.18;;;27.27;34.58
49657;BME280;52851;38.810;-78.768;2022-07-12T00:13:46;95623.04;;;27.46;34.65
49657;BME280;52851;38.810;-78.768;2022-07-12T00:16:13;95623.32;;;27.31;34.87
49657;BME280;52851;38.810;-78.768;2022-07-12T00:18:41;95623.77;;;27.20;35.00
49657;BME280;52851;38.810;-78.768;2022-07-12T00:21:09;95627.85;;;26.86;35.05
49657;BME280;52851;38.810;-78.768;2022-07-12T00:23:37;95627.77;;;27.08;35.08
49657;BME280;52851;38.810;-78.768;2022-07-12T00:26:05;95626.43;;;27.09;35.08
49657;BME280;52851;38.810;-78.768;2022-07-12T00:28:33;95634.38;;;26.79;35.02
49657;BME280;52851;38.810;-78.768;2022-07-12T00:31:03;95636.89;;;26.96;35.13
49657;BME280;52851;38.810;-78.768;2022-07-12T00:33:32;95626.48;;;26.92;35.09
49657;BME280;52851;38.810;-78.768;2022-07-12T00:35:59;95622.68;;;26.77;35.25
49657;BME280;52851;38.810;-78.768;2022-07-12T00:38:27;95624.42;;;26.67;35.41
49657;BME280;52851;38.810;-78.768;2022-07-12T00:40:55;95618.66;;;26.72;35.75
49657;BME280;52851;38.810;-78.768;2022-07-12T00:43:24;95608.67;;;26.37;36.04
49657;BME280;52851;38.810;-78.768;2022-07-12T00:45:51;95605.38;;;26.23;36.36
49657;BME280;52851;38.810;-78.768;2022-07-12T00:48:19;95607.82;;;26.21;36.48
49657;BME280;52851;38.810;-78.768;2022-07-12T00:50:48;95603.24;;;26.35;36.67
49657;BME280;52851;38.810;-78.768;2022-07-12T00:53:17;95601.30;;;26.31;36.64
49657;BME280;52851;38.810;-78.768;2022-07-12T00:55:45;95614.05;;;26.58;36.57
49657;BME280;52851;38.810;-78.768;2022-07-12T00:58:14;95612.52;;;26.52;36.58
49657;BME280;52851;38.810;-78.768;2022-07-12T01:00:42;95606.11;;;26.44;36.66
49657;BME280;52851;38.810;-78.768;2022-07-12T01:03:11;95597.51;;;25.85;36.84
49657;BME280;52851;38.810;-78.768;2022-07-12T01:05:39;95596.02;;;26.29;36.81
49657;BME280;52851;38.810;-78.768;2022-07-12T01:08:07;95602.14;;;26.36;36.70
49657;BME280;52851;38.810;-78.768;2022-07-12T01:10:37;95607.83;;;25.98;36.86
49657;BME280;52851;38.810;-78.768;2022-07-12T01:13:05;95601.55;;;25.89;36.97
49657;BME280;52851;38.810;-78.768;2022-07-12T01:15:33;95597.95;;;26.01;37.11
49657;BME280;52851;38.810;-78.768;2022-07-12T01:18:03;95596.06;;;26.09;36.99
49657;BME280;52851;38.810;-78.768;2022-07-12T01:20:32;95595.57;;;26.07;37.03
49657;BME280;52851;38.810;-78.768;2022-07-12T01:23:02;95588.92;;;26.06;37.04
49657;BME280;52851;38.810;-78.768;2022-07-12T01:25:30;95582.78;;;25.96;37.17
49657;BME280;52851;38.810;-78.768;2022-07-12T01:27:58;95586.79;;;25.90;37.27
49657;BME280;52851;38.810;-78.768;2022-07-12T01:30:26;95588.98;;;25.85;37.37
49657;BME280;52851;38.810;-78.768;2022-07-12T01:32:54;95589.96;;;25.74;37.55
49657;BME280;52851;38.810;-78.768;2022-07-12T01:35:25;95588.86;;;25.73;37.59
49657;BME280;52851;38.810;-78.768;2022-07-12T01:37:53;95588.62;;;25.70;37.66
49657;BME280;52851;38.810;-78.768;2022-07-12T01:40:21;95593.52;;;25.47;37.72
49657;BME280;52851;38.810;-78.768;2022-07-12T01:42:50;95587.44;;;25.92;37.84
49657;BME280;52851;38.810;-78.768;2022-07-12T01:45:19;95586.29;;;25.56;38.04
49657;BME280;52851;38.810;-78.768;2022-07-12T01:47:47;95590.21;;;25.27;38.30
49657;BME280;52851;38.810;-78.768;2022-07-12T01:50:15;95590.24;;;26.00;38.49
49657;BME280;52851;38.810;-78.768;2022-07-12T01:52:43;95595.89;;;25.93;38.72
49657;BME280;52851;38.810;-78.768;2022-07-12T01:55:12;95596.68;;;25.84;39.17
49657;BME280;52851;38.810;-78.768;2022-07-12T01:57:41;95596.43;;;25.22;39.44
49657;BME280;52851;38.810;-78.768;2022-07-12T02:00:10;95594.40;;;25.36;39.80
49657;BME280;52851;38.810;-78.768;2022-07-12T02:02:39;95596.52;;;25.43;40.08
49657;BME280;52851;38.810;-78.768;2022-07-12T02:05:08;95593.19;;;25.17;40.22
49657;BME280;52851;38.810;-78.768;2022-07-12T02:07:36;95590.55;;;25.16;40.39
49657;BME280;52851;38.810;-78.768;2022-07-12T02:10:05;95587.20;;;25.20;40.48
49657;BME280;52851;38.810;-78.768;2022-07-12T02:12:33;95590.47;;;25.44;40.59
49657;BME280;52851;38.810;-78.768;2022-07-12T02:15:02;95595.24;;;25.43;40.78
49657;BME280;52851;38.810;-78.768;2022-07-12T02:17:29;95600.89;;;25.39;40.91
49657;BME280;52851;38.810;-78.768;2022-07-12T02:19:57;95596.59;;;25.09;41.09
49657;BME280;52851;38.810;-78.768;2022-07-12T02:22:25;95586.77;;;25.01;41.23
49657;BME280;52851;38.810;-78.768;2022-07-12T02:24:53;95576.69;;;24.98;41.34
49657;BME280;52851;38.810;-78.768;2022-07-12T02:27:21;95576.34;;;25.19;41.55
49657;BME280;52851;38.810;-78.768;2022-07-12T02:29:48;95575.91;;;25.14;41.78
49657;BME280;52851;38.810;-78.768;2022-07-12T02:32:16;95576.05;;;25.12;41.87
49657;BME280;52851;38.810;-78.768;2022-07-12T02:34:44;95582.58;;;25.10;42.03
49657;BME280;52851;38.810;-78.768;2022-07-12T02:37:13;95591.47;;;25.10;42.08
49657;BME280;52851;38.810;-78.768;2022-07-12T02:39:41;95598.35;;;25.02;42.33
49657;BME280;52851;38.810;-78.768;2022-07-12T02:42:09;95609.86;;;24.87;42.50
49657;BME280;52851;38.810;-78.768;2022-07-12T02:44:37;95620.90;;;24.73;42.62
49657;BME280;52851;38.810;-78.768;2022-07-12T02:47:05;95622.15;;;24.69;42.63
49657;BME280;52851;38.810;-78.768;2022-07-12T02:49:35;95626.22;;;24.94;42.64
49657;BME280;52851;38.810;-78.768;2022-07-12T02:52:03;95639.88;;;24.40;42.71
49657;BME280;52851;38.810;-78.768;2022-07-12T02:54:31;95640.84;;;24.62;42.73
49657;BME280;52851;38.810;-78.768;2022-07-12T02:56:59;95636.46;;;24.58;42.81
49657;BME280;52851;38.810;-78.768;2022-07-12T02:59:27;95642.57;;;24.53;42.93
49657;BME280;52851;38.810;-78.768;2022-07-12T03:01:55;95647.16;;;24.49;43.05
49657;BME280;52851;38.810;-78.768;2022-07-12T03:04:23;95647.56;;;24.51;43.05
49657;BME280;52851;38.810;-78.768;2022-07-12T03:06:51;95647.18;;;24.47;43.13
49657;BME280;52851;38.810;-78.768;2022-07-12T03:09:19;95649.31;;;24.46;43.22
49657;BME280;52851;38.810;-78.768;2022-07-12T03:11:47;95653.10;;;24.67;43.44
49657;BME280;52851;38.810;-78.768;2022-07-12T03:14:15;95654.15;;;24.68;43.47
49657;BME280;52851;38.810;-78.768;2022-07-12T03:16:43;95655.71;;;24.40;43.52
49657;BME280;52851;38.810;-78.768;2022-07-12T03:19:11;95659.84;;;24.42;43.53
49657;BME280;52851;38.810;-78.768;2022-07-12T03:21:39;95663.08;;;24.42;43.54
49657;BME280;52851;38.810;-78.768;2022-07-12T03:24:07;95658.47;;;24.46;43.49
49657;BME280;52851;38.810;-78.768;2022-07-12T03:26:35;95657.59;;;24.42;43.54
49657;BME280;52851;38.810;-78.768;2022-07-12T03:29:03;95665.88;;;24.67;43.55
49657;BME280;52851;38.810;-78.768;2022-07-12T03:31:30;95678.10;;;24.67;43.53
49657;BME280;52851;38.810;-78.768;2022-07-12T03:33:58;95682.87;;;24.19;43.88
49657;BME280;52851;38.810;-78.768;2022-07-12T03:36:26;95679.55;;;24.18;44.35
49657;BME280;52851;38.810;-78.768;2022-07-12T03:38:54;95678.89;;;23.93;44.36
49657;BME280;52851;38.810;-78.768;2022-07-12T03:41:21;95674.79;;;24.20;44.30
49657;BME280;52851;38.810;-78.768;2022-07-12T03:43:49;95669.57;;;23.97;44.22
49657;BME280;52851;38.810;-78.768;2022-07-12T03:46:17;95671.68;;;24.52;44.06
49657;BME280;52851;38.810;-78.768;2022-07-12T03:48:45;95679.40;;;24.04;43.98
49657;BME280;52851;38.810;-78.768;2022-07-12T03:51:13;95680.84;;;24.09;43.89
49657;BME280;52851;38.810;-78.768;2022-07-12T03:53:41;95679.77;;;24.09;43.85
49657;BME280;52851;38.810;-78.768;2022-07-12T03:56:10;95684.09;;;24.35;43.88
49657;BME280;52851;38.810;-78.768;2022-07-12T03:58:38;95684.81;;;24.07;43.89
49657;BME280;52851;38.810;-78.768;2022-07-12T04:01:06;95683.36;;;24.40;43.78
49657;BME280;52851;38.810;-78.768;2022-07-12T04:03:34;95681.92;;;24.12;43.79
49657;BME280;52851;38.810;-78.768;2022-07-12T04:06:02;95683.77;;;24.41;43.71
49657;BME280;52851;38.810;-78.768;2022-07-12T04:08:32;95677.93;;;24.11;43.70
49657;BME280;52851;38.810;-78.768;2022-07-12T04:11:00;95676.86;;;24.38;43.67
49657;BME280;52851;38.810;-78.768;2022-07-12T04:13:28;95675.33;;;24.36;43.68
49657;BME280;52851;38.810;-78.768;2022-07-12T04:15:57;95676.13;;;24.37;43.63
49657;BME280;52851;38.810;-78.768;2022-07-12T04:18:25;95674.50;;;24.10;43.58
49657;BME280;52851;38.810;-78.768;2022-07-12T04:20:52;95675.20;;;24.60;43.52
49657;BME280;52851;38.810;-78.768;2022-07-12T04:23:20;95673.07;;;24.06;43.50
49657;BME280;52851;38.810;-78.768;2022-07-12T04:25:48;95669.97;;;24.05;43.45
49657;BME280;52851;38.810;-78.768;2022-07-12T04:28:16;95667.09;;;24.05;43.36
49657;BME280;52851;38.810;-78.768;2022-07-12T04:30:44;95669.10;;;24.05;43.26
49657;BME280;52851;38.810;-78.768;2022-07-12T04:33:14;95671.14;;;24.04;43.21
49657;BME280;52851;38.810;-78.768;2022-07-12T04:35:42;95671.38;;;24.26;43.12
49657;BME280;52851;38.810;-78.768;2022-07-12T04:38:09;95672.45;;;23.95;43.19
49657;BME280;52851;38.810;-78.768;2022-07-12T04:40:37;95668.31;;;23.98;43.14
49657;BME280;52851;38.810;-78.768;2022-07-12T04:43:05;95661.64;;;24.47;43.08
49657;BME280;52851;38.810;-78.768;2022-07-12T04:45:34;95658.41;;;23.95;43.11
49657;BME280;52851;38.810;-78.768;2022-07-12T04:48:02;95657.09;;;24.40;43.15
49657;BME280;52851;38.810;-78.768;2022-07-12T04:50:29;95662.20;;;24.38;43.12
49657;BME280;52851;38.810;-78.768;2022-07-12T04:52:57;95659.13;;;23.83;43.21
49657;BME280;52851;38.810;-78.768;2022-07-12T04:55:25;95658.43;;;23.76;43.39
49657;BME280;52851;38.810;-78.768;2022-07-12T04:57:53;95652.65;;;23.86;43.65
49657;BME280;52851;38.810;-78.768;2022-07-12T05:00:21;95650.78;;;23.98;43.82
49657;BME280;52851;38.810;-78.768;2022-07-12T05:02:49;95649.01;;;23.45;43.87
49657;BME280;52851;38.810;-78.768;2022-07-12T05:05:17;95650.58;;;23.86;43.98
49657;BME280;52851;38.810;-78.768;2022-07-12T05:07:45;95653.96;;;23.60;44.06
49657;BME280;52851;38.810;-78.768;2022-07-12T05:10:13;95654.17;;;23.83;44.07
49657;BME280;52851;38.810;-78.768;2022-07-12T05:12:41;95657.24;;;23.68;44.32
49657;BME280;52851;38.810;-78.768;2022-07-12T05:15:09;95657.91;;;23.60;44.46
49657;BME280;52851;38.810;-78.768;2022-07-12T05:17:37;95658.60;;;23.55;44.54
49657;BME280;52851;38.810;-78.768;2022-07-12T05:20:06;95659.03;;;23.52;44.56
49657;BME280;52851;38.810;-78.768;2022-07-12T05:22:33;95655.24;;;23.48;44.59
49657;BME280;52851;38.810;-78.768;2022-07-12T05:25:01;95645.99;;;23.50;44.55
49657;BME280;52851;38.810;-78.768;2022-07-12T05:27:29;95649.66;;;23.25;44.53
49657;BME280;52851;38.810;-78.768;2022-07-12T05:29:57;95650.98;;;23.52;44.39
49657;BME280;52851;38.810;-78.768;2022-07-12T05:32:25;95649.08;;;23.45;44.49
49657;BME280;52851;38.810;-78.768;2022-07-12T05:34:53;95644.49;;;23.42;44.79
49657;BME280;52851;38.810;-78.768;2022-07-12T05:37:21;95639.39;;;23.13;44.93
49657;BME280;52851;38.810;-78.768;2022-07-12T05:39:48;95630.71;;;23.21;44.82
49657;BME280;52851;38.810;-78.768;2022-07-12T05:42:16;95641.71;;;23.23;44.76
49657;BME280;52851;38.810;-78.768;2022-07-12T05:44:44;95641.84;;;22.93;45.28
49657;BME280;52851;38.810;-78.768;2022-07-12T05:47:13;95639.37;;;23.03;45.58
49657;BME280;52851;38.810;-78.768;2022-07-12T05:49:41;95641.40;;;22.76;45.74
49657;BME280;52851;38.810;-78.768;2022-07-12T05:52:08;95639.44;;;22.85;46.01
49657;BME280;52851;38.810;-78.768;2022-07-12T05:54:36;95633.90;;;22.92;45.95
49657;BME280;52851;38.810;-78.768;2022-07-12T05:57:05;95629.82;;;22.91;46.01
49657;BME280;52851;38.810;-78.768;2022-07-12T05:59:34;95624.72;;;22.80;45.83
49657;BME280;52851;38.810;-78.768;2022-07-12T06:02:02;95623.77;;;23.36;45.71
49657;BME280;52851;38.810;-78.768;2022-07-12T06:04:30;95622.78;;;22.91;45.60
49657;BME280;52851;38.810;-78.768;2022-07-12T06:06:58;95619.81;;;23.16;45.53
49657;BME280;52851;38.810;-78.768;2022-07-12T06:09:26;95621.44;;;23.17;45.44
49657;BME280;52851;38.810;-78.768;2022-07-12T06:11:54;95620.87;;;23.19;45.29
49657;BME280;52851;38.810;-78.768;2022-07-12T06:14:23;95620.87;;;22.99;45.22
49657;BME280;52851;38.810;-78.768;2022-07-12T06:16:51;95616.22;;;22.99;45.12
49657;BME280;52851;38.810;-78.768;2022-07-12T06:19:19;95612.78;;;22.98;45.10
49657;BME280;52851;38.810;-78.768;2022-07-12T06:21:47;95609.97;;;23.13;45.12
49657;BME280;52851;38.810;-78.768;2022-07-12T06:24:16;95609.69;;;23.10;45.11
49657;BME280;52851;38.810;-78.768;2022-07-12T06:26:44;95608.72;;;22.78;45.25
49657;BME280;52851;38.810;-78.768;2022-07-12T06:29:11;95604.51;;;22.76;45.31
49657;BME280;52851;38.810;-78.768;2022-07-12T06:31:39;95597.71;;;22.79;45.68
49657;BME280;52851;38.810;-78.768;2022-07-12T06:34:07;95599.69;;;22.71;45.77
49657;BME280;52851;38.810;-78.768;2022-07-12T06:36:35;95605.40;;;22.73;45.77
49657;BME280;52851;38.810;-78.768;2022-07-12T06:39:03;95603.23;;;22.88;45.89
49657;BME280;52851;38.810;-78.768;2022-07-12T06:41:31;95595.23;;;22.66;46.25
49657;BME280;52851;38.810;-78.768;2022-07-12T06:43:59;95594.23;;;22.59;46.38
49657;BME280;52851;38.810;-78.768;2022-07-12T06:46:27;95592.18;;;22.43;46.67
49657;BME280;52851;38.810;-78.768;2022-07-12T06:48:55;95589.79;;;22.43;46.67
49657;BME280;52851;38.810;-78.768;2022-07-12T06:51:23;95586.27;;;22.33;46.81
49657;BME280;52851;38.810;-78.768;2022-07-12T06:53:51;95582.59;;;22.43;46.71
49657;BME280;52851;38.810;-78.768;2022-07-12T06:56:19;95581.44;;;22.39;46.83
49657;BME280;52851;38.810;-78.768;2022-07-12T06:58:48;95583.41;;;22.15;46.84
49657;BME280;52851;38.810;-78.768;2022-07-12T07:01:16;95583.86;;;22.27;46.66
49657;BME280;52851;38.810;-78.768;2022-07-12T07:03:44;95583.33;;;22.58;46.55
49657;BME280;52851;38.810;-78.768;2022-07-12T07:06:12;95584.85;;;22.49;46.62
49657;BME280;52851;38.810;-78.768;2022-07-12T07:08:39;95576.55;;;22.41;46.72
49657;BME280;52851;38.810;-78.768;2022-07-12T07:11:07;95577.26;;;22.32;46.90
49657;BME280;52851;38.810;-78.768;2022-07-12T07:13:35;95582.00;;;22.29;46.89
49657;BME280;52851;38.810;-78.768;2022-07-12T07:16:03;95582.64;;;22.23;46.95
49657;BME280;52851;38.810;-78.768;2022-07-12T07:18:31;95579.66;;;22.17;47.04
49657;BME280;52851;38.810;-78.768;2022-07-12T07:20:59;95575.69;;;22.13;47.14
49657;BME280;52851;38.810;-78.768;2022-07-12T07:23:28;95581.44;;;22.13;47.16
49657;BME280;52851;38.810;-78.768;2022-07-12T07:25:56;95577.17;;;22.09;47.19
49657;BME280;52851;38.810;-78.768;2022-07-12T07:28:24;95576.94;;;22.08;47.23
49657;BME280;52851;38.810;-78.768;2022-07-12T07:30:51;95573.02;;;21.90;47.57
49657;BME280;52851;38.810;-78.768;2022-07-12T07:33:19;95575.57;;;21.89;47.64
49657;BME280;52851;38.810;-78.768;2022-07-12T07:35:47;95571.31;;;21.88;47.63
49657;BME280;52851;38.810;-78.768;2022-07-12T07:38:16;95569.86;;;21.80;47.80
49657;BME280;52851;38.810;-78.768;2022-07-12T07:40:44;95574.45;;;21.80;47.75
49657;BME280;52851;38.810;-78.768;2022-07-12T07:43:12;95573.84;;;21.98;47.83
49657;BME280;52851;38.810;-78.768;2022-07-12T07:45:40;95573.20;;;21.61;48.16
49657;BME280;52851;38.810;-78.768;2022-07-12T07:48:08;95571.42;;;21.81;48.24
49657;BME280;52851;38.810;-78.768;2022-07-12T07:50:36;95571.02;;;21.65;48.17
49657;BME280;52851;38.810;-78.768;2022-07-12T07:53:04;95572.93;;;21.79;47.97
49657;BME280;52851;38.810;-78.768;2022-07-12T07:55:32;95570.63;;;21.87;47.83
49657;BME280;52851;38.810;-78.768;2022-07-12T07:58:00;95574.03;;;21.58;47.86
49657;BME280;52851;38.810;-78.768;2022-07-12T08:00:28;95568.14;;;21.86;47.87
49657;BME280;52851;38.810;-78.768;2022-07-12T08:02:56;95573.12;;;21.94;47.74
49657;BME280;52851;38.810;-78.768;2022-07-12T08:05:24;95573.25;;;21.99;47.65
49657;BME280;52851;38.810;-78.768;2022-07-12T08:07:51;95569.25;;;21.95;47.65
49657;BME280;52851;38.810;-78.768;2022-07-12T08:10:19;95567.35;;;21.94;47.65
49657;BME280;52851;38.810;-78.768;2022-07-12T08:12:47;95563.64;;;21.92;47.69
49657;BME280;52851;38.810;-78.768;2022-07-12T08:15:16;95572.22;;;21.88;47.67
49657;BME280;52851;38.810;-78.768;2022-07-12T08:17:43;95574.33;;;21.83;47.90
49657;BME280;52851;38.810;-78.768;2022-07-12T08:20:11;95565.64;;;21.31;48.39
49657;BME280;52851;38.810;-78.768;2022-07-12T08:22:44;95571.15;;;21.42;48.26
49657;BME280;52851;38.810;-78.768;2022-07-12T08:25:12;95569.84;;;21.54;48.41
49657;BME280;52851;38.810;-78.768;2022-07-12T08:27:40;95563.99;;;21.43;48.32
49657;BME280;52851;38.810;-78.768;2022-07-12T08:30:09;95556.81;;;21.38;48.36
49657;BME280;52851;38.810;-78.768;2022-07-12T08:32:37;95562.12;;;21.37;48.43
49657;BME280;52851;38.810;-78.768;2022-07-12T08:35:10;95562.43;;;21.58;48.47
49657;BME280;52851;38.810;-78.768;2022-07-12T08:37:38;95560.85;;;21.82;48.47
49657;BME280;52851;38.810;-78.768;2022-07-12T08:40:07;95559.75;;;21.59;48.47
49657;BME280;52851;38.810;-78.768;2022-07-12T08:42:36;95561.68;;;21.79;48.49
49657;BME280;52851;38.810;-78.768;2022-07-12T08:45:08;95563.83;;;21.70;48.55
49657;BME280;52851;38.810;-78.768;2022-07-12T08:47:36;95559.28;;;21.53;48.84
49657;BME280;52851;38.810;-78.768;2022-07-12T08:50:13;95556.46;;;21.16;48.87
49657;BME280;52851;38.810;-78.768;2022-07-12T08:52:44;95563.87;;;21.20;48.83
49657;BME280;52851;38.810;-78.768;2022-07-12T08:55:29;95561.95;;;21.75;48.66
49657;BME280;52851;38.810;-78.768;2022-07-12T08:57:59;95559.48;;;21.24;48.80
49657;BME280;52851;38.810;-78.768;2022-07-12T09:00:27;95557.35;;;21.34;48.65
49657;BME280;52851;38.810;-78.768;2022-07-12T09:02:56;95560.04;;;21.62;48.60
49657;BME280;52851;38.810;-78.768;2022-07-12T09:05:26;95560.03;;;21.76;48.71
49657;BME280;52851;38.810;-78.768;2022-07-12T09:08:02;95559.16;;;21.59;48.69
49657;BME280;52851;38.810;-78.768;2022-07-12T09:10:30;95561.29;;;21.41;48.68
49657;BME280;52851;38.810;-78.768;2022-07-12T09:12:58;95552.06;;;21.40;48.62
49657;BME280;52851;38.810;-78.768;2022-07-12T09:15:28;95558.56;;;21.31;48.81
49657;BME280;52851;38.810;-78.768;2022-07-12T09:17:57;95562.75;;;21.80;48.74
49657;BME280;52851;38.810;-78.768;2022-07-12T09:20:26;95560.30;;;21.50;48.79
49657;BME280;52851;38.810;-78.768;2022-07-12T09:22:57;95561.58;;;21.05;49.15
49657;BME280;52851;38.810;-78.768;2022-07-12T09:25:26;95556.68;;;21.32;49.16
49657;BME280;52851;38.810;-78.768;2022-07-12T09:27:55;95550.96;;;21.57;49.15
49657;BME280;52851;38.810;-78.768;2022-07-12T09:30:25;95555.01;;;21.61;49.08
49657;BME280;52851;38.810;-78.768;2022-07-12T09:32:58;95556.03;;;21.66;49.03
49657;BME280;52851;38.810;-78.768;2022-07-12T09:35:26;95559.58;;;21.38;49.14
49657;BME280;52851;38.810;-78.768;2022-07-12T09:37:54;95556.37;;;21.37;49.11
49657;BME280;52851;38.810;-78.768;2022-07-12T09:40:22;95560.03;;;21.63;49.07
49657;BME280;52851;38.810;-78.768;2022-07-12T09:42:52;95554.13;;;21.38;49.11
49657;BME280;52851;38.810;-78.768;2022-07-12T09:45:20;95550.73;;;21.52;49.29
49657;BME280;52851;38.810;-78.768;2022-07-12T09:47:49;95550.99;;;21.41;49.13
49657;BME280;52851;38.810;-78.768;2022-07-12T09:50:18;95546.46;;;21.48;49.32
49657;BME280;52851;38.810;-78.768;2022-07-12T09:52:49;95548.04;;;21.33;49.58
49657;BME280;52851;38.810;-78.768;2022-07-12T09:55:25;95551.71;;;21.27;49.36
49657;BME280;52851;38.810;-78.768;2022-07-12T09:58:02;95548.01;;;21.07;49.35
49657;BME280;52851;38.810;-78.768;2022-07-12T10:00:30;95544.53;;;21.51;49.32
49657;BME280;52851;38.810;-78.768;2022-07-12T10:02:59;95539.83;;;21.43;49.39
49657;BME280;52851;38.810;-78.768;2022-07-12T10:05:28;95544.61;;;21.31;49.60
49657;BME280;52851;38.810;-78.768;2022-07-12T10:07:57;95541.73;;;21.34;49.61
49657;BME280;52851;38.810;-78.768;2022-07-12T10:10:27;95544.26;;;21.10;49.61
49657;BME280;52851;38.810;-78.768;2022-07-12T10:12:56;95538.78;;;21.37;49.57
49657;BME280;52851;38.810;-78.768;2022-07-12T10:15:26;95532.03;;;21.10;50.13
49657;BME280;52851;38.810;-78.768;2022-07-12T10:17:55;95540.29;;;21.19;50.12
49657;BME280;52851;38.810;-78.768;2022-07-12T10:20:24;95541.90;;;21.44;49.87
49657;BME280;52851;38.810;-78.768;2022-07-12T10:22:53;95543.14;;;20.86;49.91
49657;BME280;52851;38.810;-78.768;2022-07-12T10:25:30;95536.60;;;21.05;49.96
49657;BME280;52851;38.810;-78.768;2022-07-12T10:27:58;95536.83;;;21.08;50.10
49657;BME280;52851;38.810;-78.768;2022-07-12T10:30:26;95543.84;;;21.23;49.83
49657;BME280;52851;38.810;-78.768;2022-07-12T10:32:56;95549.26;;;21.24;49.74
49657;BME280;52851;38.810;-78.768;2022-07-12T10:35:26;95545.35;;;20.94;49.98
49657;BME280;52851;38.810;-78.768;2022-07-12T10:38:26;95547.32;;;20.97;49.95
49657;BME280;52851;38.810;-78.768;2022-07-12T10:40:54;95543.70;;;21.11;50.31
49657;BME280;52851;38.810;-78.768;2022-07-12T10:43:24;95542.48;;;21.05;50.14
49657;BME280;52851;38.810;-78.768;2022-07-12T10:45:52;95537.12;;;21.16;50.19
49657;BME280;52851;38.810;-78.768;2022-07-12T10:48:22;95540.28;;;21.28;50.15
49657;BME280;52851;38.810;-78.768;2022-07-12T10:50:54;95538.64;;;21.34;50.11
49657;BME280;52851;38.810;-78.768;2022-07-12T10:53:25;95548.30;;;21.33;50.08
49657;BME280;52851;38.810;-78.768;2022-07-12T10:56:10;95542.53;;;21.30;50.06
49657;BME280;52851;38.810;-78.768;2022-07-12T10:58:40;95536.61;;;21.33;50.07
49657;BME280;52851;38.810;-78.768;2022-07-12T11:01:10;95530.97;;;21.38;50.13
49657;BME280;52851;38.810;-78.768;2022-07-12T11:03:40;95529.74;;;21.32;50.01
49657;BME280;52851;38.810;-78.768;2022-07-12T11:06:10;95529.34;;;21.35;50.03
49657;BME280;52851;38.810;-78.768;2022-07-12T11:08:56;95532.25;;;21.64;50.02
49657;BME280;52851;38.810;-78.768;2022-07-12T11:11:27;95532.28;;;21.57;50.14
49657;BME280;52851;38.810;-78.768;2022-07-12T11:13:56;95534.14;;;21.58;50.03
49657;BME280;52851;38.810;-78.768;2022-07-12T11:16:25;95523.89;;;21.42;50.22
49657;BME280;52851;38.810;-78.768;2022-07-12T11:18:54;95521.45;;;21.45;50.27
49657;BME280;52851;38.810;-78.768;2022-07-12T11:21:23;95519.74;;;21.06;50.25
49657;BME280;52851;38.810;-78.768;2022-07-12T11:23:51;95516.87;;;21.22;50.37
49657;BME280;52851;38.810;-78.768;2022-07-12T11:26:19;95524.72;;;21.36;50.29
49657;BME280;52851;38.810;-78.768;2022-07-12T11:28:47;95522.85;;;21.59;50.33
49657;BME280;52851;38.810;-78.768;2022-07-12T11:31:16;95513.69;;;21.62;50.34
49657;BME280;52851;38.810;-78.768;2022-07-12T11:33:45;95514.64;;;21.71;50.35
49657;BME280;52851;38.810;-78.768;2022-07-12T11:36:15;95520.73;;;21.68;50.27
49657;BME280;52851;38.810;-78.768;2022-07-12T11:38:44;95523.08;;;21.78;50.41
49657;BME280;52851;38.810;-78.768;2022-07-12T11:41:13;95518.53;;;21.53;50.63
49657;BME280;52851;38.810;-78.768;2022-07-12T11:43:42;95512.48;;;21.49;50.52
49657;BME280;52851;38.810;-78.768;2022-07-12T11:46:11;95516.25;;;21.95;50.45
49657;BME280;52851;38.810;-78.768;2022-07-12T11:48:42;95521.30;;;22.00;50.30
49657;BME280;52851;38.810;-78.768;2022-07-12T11:51:11;95526.21;;;21.95;50.37
49657;BME280;52851;38.810;-78.768;2022-07-12T11:53:40;95531.81;;;22.11;50.39
49657;BME280;52851;38.810;-78.768;2022-07-12T11:56:10;95533.25;;;21.71;50.59
49657;BME280;52851;38.810;-78.768;2022-07-12T11:58:38;95525.95;;;21.80;50.56
49657;BME280;52851;38.810;-78.768;2022-07-12T12:01:11;95527.68;;;21.95;50.38
49657;BME280;52851;38.810;-78.768;2022-07-12T12:03:45;95524.47;;;21.86;50.65
49657;BME280;52851;38.810;-78.768;2022-07-12T12:06:13;95524.11;;;22.08;50.44
49657;BME280;52851;38.810;-78.768;2022-07-12T12:08:42;95532.30;;;22.29;50.28
49657;BME280;52851;38.810;-78.768;2022-07-12T12:11:10;95529.12;;;22.29;50.37
49657;BME280;52851;38.810;-78.768;2022-07-12T12:13:37;95530.08;;;22.48;50.26
49657;BME280;52851;38.810;-78.768;2022-07-12T12:16:06;95528.90;;;22.62;50.24
49657;BME280;52851;38.810;-78.768;2022-07-12T12:18:36;95518.47;;;22.49;50.35
49657;BME280;52851;38.810;-78.768;2022-07-12T12:21:05;95536.26;;;22.49;50.38
49657;BME280;52851;38.810;-78.768;2022-07-12T12:23:35;95529.79;;;22.75;50.45
49657;BME280;52851;38.810;-78.768;2022-07-12T12:26:18;95527.39;;;22.87;50.52
49657;BME280;52851;38.810;-78.768;2022-07-12T12:28:48;95528.02;;;22.95;50.71
49657;BME280;52851;38.810;-78.768;2022-07-12T12:31:18;95524.96;;;23.07;50.61
49657;BME280;52851;38.810;-78.768;2022-07-12T12:33:48;95535.19;;;22.87;50.64
49657;BME280;52851;38.810;-78.768;2022-07-12T12:36:19;95537.62;;;23.08;50.71
49657;BME280;52851;38.810;-78.768;2022-07-12T12:38:50;95535.02;;;22.92;50.67
49657;BME280;52851;38.810;-78.768;2022-07-12T12:41:18;95538.35;;;23.06;50.52
49657;BME280;52851;38.810;-78.768;2022-07-12T12:43:47;95540.52;;;23.11;50.51
49657;BME280;52851;38.810;-78.768;2022-07-12T12:46:15;95535.19;;;23.41;50.48
49657;BME280;52851;38.810;-78.768;2022-07-12T12:48:48;95535.60;;;23.23;50.53